sensor_id;sensor_type;location;lat;lon;timestamp;pressure;altitude;pressure_sealevel;temperature
67966;BMP280;54749;47.850;9.002;2023-10-09T00:02:09;96695.16;;;10.05
67966;BMP280;54749;47.850;9.002;2023-10-09T00:04:41;96700.41;;;10.02
67966;BMP280;54749;47.850;9.002;2023-10-09T00:07:13;96700.63;;;9.99
67966;BMP280;54749;47.850;9.002;2023-10-09T00:09:44;96694.13;;;9.95
67966;BMP280;54749;47.850;9.002;2023-10-09T00:12:19;96700.16;;;9.93
67966;BMP280;54749;47.850;9.002;2023-10-09T00:14:54;96692.72;;;9.91
67966;BMP280;54749;47.850;9.002;2023-10-09T00:17:34;96688.84;;;9.86
67966;BMP280;54749;47.850;9.002;2023-10-09T00:20:01;96689.19;;;9.80
67966;BMP280;54749;47.850;9.002;2023-10-09T00:22:44;96695.97;;;9.80
67966;BMP280;54749;47.850;9.002;2023-10-09T00:25:13;96690.34;;;9.75
67966;BMP280;54749;47.850;9.002;2023-10-09T00:27:51;96676.81;;;9.76
67966;BMP280;54749;47.850;9.002;2023-10-09T00:30:18;96681.25;;;9.72
67966;BMP280;54749;47.850;9.002;2023-10-09T00:32:48;96687.47;;;9.67
67966;BMP280;54749;47.850;9.002;2023-10-09T00:35:31;96680.66;;;9.55
67966;BMP280;54749;47.850;9.002;2023-10-09T00:38:09;96680.38;;;9.46
67966;BMP280;54749;47.850;9.002;2023-10-09T00:40:48;96678.47;;;9.49
67966;BMP280;54749;47.850;9.002;2023-10-09T00:43:34;96668.38;;;9.49
67966;BMP280;54749;47.850;9.002;2023-10-09T00:46:04;96682.63;;;9.50
67966;BMP280;54749;47.850;9.002;2023-10-09T00:48:39;96661.56;;;9.51
67966;BMP280;54749;47.850;9.002;2023-10-09T00:51:08;96666.03;;;9.60
67966;BMP280;54749;47.850;9.002;2023-10-09T00:53:45;96667.47;;;9.64
67966;BMP280;54749;47.850;9.002;2023-10-09T00:56:19;96666.38;;;9.68
67966;BMP280;54749;47.850;9.002;2023-10-09T00:58:50;96664.47;;;9.71
67966;BMP280;54749;47.850;9.002;2023-10-09T01:01:47;96669.19;;;9.77
67966;BMP280;54749;47.850;9.002;2023-10-09T01:04:25;96653.94;;;9.79
67966;BMP280;54749;47.850;9.002;2023-10-09T01:06:56;96649.06;;;9.76
67966;BMP280;54749;47.850;9.002;2023-10-09T01:09:36;96659.91;;;9.78
67966;BMP280;54749;47.850;9.002;2023-10-09T01:12:10;96651.41;;;9.79
67966;BMP280;54749;47.850;9.002;2023-10-09T01:14:45;96653.94;;;9.79
67966;BMP280;54749;47.850;9.002;2023-10-09T01:17:13;96647.38;;;9.76
67966;BMP280;54749;47.850;9.002;2023-10-09T01:19:56;96647.53;;;9.73
67966;BMP280;54749;47.850;9.002;2023-10-09T01:22:25;96640.25;;;9.69
67966;BMP280;54749;47.850;9.002;2023-10-09T01:24:52;96633.78;;;9.65
67966;BMP280;54749;47.850;9.002;2023-10-09T01:27:22;96644.84;;;9.62
67966;BMP280;54749;47.850;9.002;2023-10-09T01:29:53;96634.13;;;9.59
67966;BMP280;54749;47.850;9.002;2023-10-09T01:32:20;96637.75;;;9.55
67966;BMP280;54749;47.850;9.002;2023-10-09T01:34:48;96632.88;;;9.52
67966;BMP280;54749;47.850;9.002;2023-10-09T01:37:20;96629.66;;;9.50
67966;BMP280;54749;47.850;9.002;2023-10-09T01:39:56;96631.63;;;9.45
67966;BMP280;54749;47.850;9.002;2023-10-09T01:42:42;96632.91;;;9.39
67966;BMP280;54749;47.850;9.002;2023-10-09T01:45:13;96625.72;;;9.33
67966;BMP280;54749;47.850;9.002;2023-10-09T01:47:46;96620.13;;;9.28
67966;BMP280;54749;47.850;9.002;2023-10-09T01:50:20;96622.91;;;9.24
67966;BMP280;54749;47.850;9.002;2023-10-09T01:52:51;96616.38;;;9.21
67966;BMP280;54749;47.850;9.002;2023-10-09T01:55:19;96620.94;;;9.15
67966;BMP280;54749;47.850;9.002;2023-10-09T01:58:07;96623.81;;;9.09
67966;BMP280;54749;47.850;9.002;2023-10-09T02:00:51;96613.84;;;9.08
67966;BMP280;54749;47.850;9.002;2023-10-09T02:03:23;96618.69;;;9.10
67966;BMP280;54749;47.850;9.002;2023-10-09T02:05:52;96623.31;;;9.04
67966;BMP280;54749;47.850;9.002;2023-10-09T02:08:30;96620.25;;;8.99
67966;BMP280;54749;47.850;9.002;2023-10-09T02:11:02;96622.66;;;9.01
67966;BMP280;54749;47.850;9.002;2023-10-09T02:13:29;96629.41;;;9.14
67966;BMP280;54749;47.850;9.002;2023-10-09T02:15:57;96627.53;;;9.17
67966;BMP280;54749;47.850;9.002;2023-10-09T02:18:39;96621.56;;;9.18
67966;BMP280;54749;47.850;9.002;2023-10-09T02:21:07;96619.03;;;9.18
67966;BMP280;54749;47.850;9.002;2023-10-09T02:23:35;96622.38;;;9.19
67966;BMP280;54749;47.850;9.002;2023-10-09T02:26:12;96608.97;;;9.18
67966;BMP280;54749;47.850;9.002;2023-10-09T02:28:54;96619.97;;;9.17
67966;BMP280;54749;47.850;9.002;2023-10-09T02:31:31;96614.28;;;9.14
67966;BMP280;54749;47.850;9.002;2023-10-09T02:34:08;96608.63;;;9.10
67966;BMP280;54749;47.850;9.002;2023-10-09T02:36:39;96609.69;;;9.07
67966;BMP280;54749;47.850;9.002;2023-10-09T02:39:10;96601.69;;;9.00
67966;BMP280;54749;47.850;9.002;2023-10-09T02:41:57;96601.88;;;8.97
67966;BMP280;54749;47.850;9.002;2023-10-09T02:44:28;96604.66;;;8.93
67966;BMP280;54749;47.850;9.002;2023-10-09T02:47:06;96611.31;;;8.94
67966;BMP280;54749;47.850;9.002;2023-10-09T02:49:45;96596.94;;;8.96
67966;BMP280;54749;47.850;9.002;2023-10-09T02:52:16;96597.81;;;8.95
67966;BMP280;54749;47.850;9.002;2023-10-09T02:54:52;96590.34;;;8.93
67966;BMP280;54749;47.850;9.002;2023-10-09T02:57:27;96596.38;;;8.91
67966;BMP280;54749;47.850;9.002;2023-10-09T03:00:04;96598.19;;;8.89
67966;BMP280;54749;47.850;9.002;2023-10-09T03:02:35;96596.75;;;8.85
67966;BMP280;54749;47.850;9.002;2023-10-09T03:05:07;96586.84;;;8.82
67966;BMP280;54749;47.850;9.002;2023-10-09T03:07:39;96605.38;;;8.81
67966;BMP280;54749;47.850;9.002;2023-10-09T03:10:07;96599.53;;;8.81
67966;BMP280;54749;47.850;9.002;2023-10-09T03:12:37;96593.75;;;8.79
67966;BMP280;54749;47.850;9.002;2023-10-09T03:15:06;96604.09;;;8.74
67966;BMP280;54749;47.850;9.002;2023-10-09T03:17:36;96590.78;;;8.73
67966;BMP280;54749;47.850;9.002;2023-10-09T03:20:04;96596.03;;;8.70
67966;BMP280;54749;47.850;9.002;2023-10-09T03:22:40;96595.38;;;8.66
67966;BMP280;54749;47.850;9.002;2023-10-09T03:25:07;96594.56;;;8.66
67966;BMP280;54749;47.850;9.002;2023-10-09T03:27:43;96592.97;;;8.65
67966;BMP280;54749;47.850;9.002;2023-10-09T03:30:14;96585.47;;;8.63
67966;BMP280;54749;47.850;9.002;2023-10-09T03:32:51;96583.03;;;8.62
67966;BMP280;54749;47.850;9.002;2023-10-09T03:35:20;96586.47;;;8.61
67966;BMP280;54749;47.850;9.002;2023-10-09T03:38:01;96592.50;;;8.58
67966;BMP280;54749;47.850;9.002;2023-10-09T03:40:45;96581.84;;;8.54
67966;BMP280;54749;47.850;9.002;2023-10-09T03:43:16;96590.59;;;8.48
67966;BMP280;54749;47.850;9.002;2023-10-09T03:45:44;96587.34;;;8.46
67966;BMP280;54749;47.850;9.002;2023-10-09T03:48:21;96585.56;;;8.48
67966;BMP280;54749;47.850;9.002;2023-10-09T03:50:49;96583.84;;;8.49
67966;BMP280;54749;47.850;9.002;2023-10-09T03:53:38;96581.22;;;8.50
67966;BMP280;54749;47.850;9.002;2023-10-09T03:56:07;96575.31;;;8.51
67966;BMP280;54749;47.850;9.002;2023-10-09T03:58:43;96572.59;;;8.54
67966;BMP280;54749;47.850;9.002;2023-10-09T04:01:14;96570.09;;;8.54
67966;BMP280;54749;47.850;9.002;2023-10-09T04:03:59;96577.63;;;8.54
67966;BMP280;54749;47.850;9.002;2023-10-09T04:06:28;96576.75;;;8.55
67966;BMP280;54749;47.850;9.002;2023-10-09T04:09:01;96583.03;;;8.62
67966;BMP280;54749;47.850;9.002;2023-10-09T04:11:41;96566.75;;;8.67
67966;BMP280;54749;47.850;9.002;2023-10-09T04:14:13;96562.19;;;8.74
67966;BMP280;54749;47.850;9.002;2023-10-09T04:16:51;96576.03;;;8.80
67966;BMP280;54749;47.850;9.002;2023-10-09T04:19:19;96575.84;;;8.83
67966;BMP280;54749;47.850;9.002;2023-10-09T04:21:49;96568.94;;;8.87
67966;BMP280;54749;47.850;9.002;2023-10-09T04:24:16;96567.84;;;8.91
67966;BMP280;54749;47.850;9.002;2023-10-09T04:26:44;96571.72;;;8.96
67966;BMP280;54749;47.850;9.002;2023-10-09T04:29:13;96570.63;;;9.00
67966;BMP280;54749;47.850;9.002;2023-10-09T04:32:04;96570.53;;;9.01
67966;BMP280;54749;47.850;9.002;2023-10-09T04:34:35;96571.53;;;8.99
67966;BMP280;54749;47.850;9.002;2023-10-09T04:37:02;96565.59;;;9.00
67966;BMP280;54749;47.850;9.002;2023-10-09T04:39:49;96567.84;;;9.04
67966;BMP280;54749;47.850;9.002;2023-10-09T04:42:38;96562.34;;;9.11
67966;BMP280;54749;47.850;9.002;2023-10-09T04:45:06;96572.34;;;9.13
67966;BMP280;54749;47.850;9.002;2023-10-09T04:47:35;96572.97;;;9.16
67966;BMP280;54749;47.850;9.002;2023-10-09T04:50:26;96555.63;;;9.24
67966;BMP280;54749;47.850;9.002;2023-10-09T04:52:55;96564.84;;;9.25
67966;BMP280;54749;47.850;9.002;2023-10-09T04:55:23;96567.97;;;9.28
67966;BMP280;54749;47.850;9.002;2023-10-09T04:57:53;96567.88;;;9.30
67966;BMP280;54749;47.850;9.002;2023-10-09T05:00:36;96571.13;;;9.32
67966;BMP280;54749;47.850;9.002;2023-10-09T05:03:14;96571.84;;;9.34
67966;BMP280;54749;47.850;9.002;2023-10-09T05:05:54;96562.44;;;9.36
67966;BMP280;54749;47.850;9.002;2023-10-09T05:08:48;96572.66;;;9.34
67966;BMP280;54749;47.850;9.002;2023-10-09T05:11:16;96556.09;;;9.30
67966;BMP280;54749;47.850;9.002;2023-10-09T05:14:20;96562.09;;;9.67
67966;BMP280;54749;47.850;9.002;2023-10-09T05:16:54;96562.59;;;10.36
67966;BMP280;54749;47.850;9.002;2023-10-09T05:19:22;96570.28;;;10.47
67966;BMP280;54749;47.850;9.002;2023-10-09T05:22:10;96565.09;;;10.12
67966;BMP280;54749;47.850;9.002;2023-10-09T05:24:57;96569.88;;;9.90
67966;BMP280;54749;47.850;9.002;2023-10-09T05:27:25;96565.59;;;9.79
67966;BMP280;54749;47.850;9.002;2023-10-09T05:30:12;96576.13;;;9.71
67966;BMP280;54749;47.850;9.002;2023-10-09T05:32:55;96576.44;;;9.67
67966;BMP280;54749;47.850;9.002;2023-10-09T05:35:26;96568.25;;;9.63
67966;BMP280;54749;47.850;9.002;2023-10-09T05:38:26;96571.75;;;9.61
67966;BMP280;54749;47.850;9.002;2023-10-09T05:40:53;96569.13;;;9.62
67966;BMP280;54749;47.850;9.002;2023-10-09T05:43:21;96566.53;;;9.64
67966;BMP280;54749;47.850;9.002;2023-10-09T05:46:07;96561.47;;;9.64
67966;BMP280;54749;47.850;9.002;2023-10-09T05:48:43;96571.66;;;9.62
67966;BMP280;54749;47.850;9.002;2023-10-09T05:51:10;96570.16;;;9.60
67966;BMP280;54749;47.850;9.002;2023-10-09T05:53:39;96568.53;;;9.59
67966;BMP280;54749;47.850;9.002;2023-10-09T05:56:12;96567.72;;;9.59
67966;BMP280;54749;47.850;9.002;2023-10-09T05:58:59;96579.22;;;9.62
67966;BMP280;54749;47.850;9.002;2023-10-09T06:01:44;96589.38;;;9.75
67966;BMP280;54749;47.850;9.002;2023-10-09T06:04:15;96584.13;;;9.91
67966;BMP280;54749;47.850;9.002;2023-10-09T06:06:43;96578.75;;;10.21
67966;BMP280;54749;47.850;9.002;2023-10-09T06:09:24;96579.69;;;10.57
67966;BMP280;54749;47.850;9.002;2023-10-09T06:12:10;96575.94;;;10.86
67966;BMP280;54749;47.850;9.002;2023-10-09T06:14:56;96571.97;;;11.19
67966;BMP280;54749;47.850;9.002;2023-10-09T06:17:46;96574.09;;;11.83
67966;BMP280;54749;47.850;9.002;2023-10-09T06:20:18;96573.44;;;12.48
67966;BMP280;54749;47.850;9.002;2023-10-09T06:23:03;96563.97;;;13.26
67966;BMP280;54749;47.850;9.002;2023-10-09T06:25:43;96565.84;;;13.87
67966;BMP280;54749;47.850;9.002;2023-10-09T06:28:18;96553.59;;;14.62
67966;BMP280;54749;47.850;9.002;2023-10-09T06:30:46;96550.63;;;15.36
67966;BMP280;54749;47.850;9.002;2023-10-09T06:33:14;96546.59;;;15.99
67966;BMP280;54749;47.850;9.002;2023-10-09T06:35:56;96542.69;;;16.60
67966;BMP280;54749;47.850;9.002;2023-10-09T06:38:33;96551.53;;;17.19
67966;BMP280;54749;47.850;9.002;2023-10-09T06:41:19;96536.06;;;17.83
67966;BMP280;54749;47.850;9.002;2023-10-09T06:44:01;96523.75;;;18.37
67966;BMP280;54749;47.850;9.002;2023-10-09T06:46:37;96534.13;;;18.94
67966;BMP280;54749;47.850;9.002;2023-10-09T06:49:11;96544.94;;;19.38
67966;BMP280;54749;47.850;9.002;2023-10-09T06:51:56;96527.50;;;19.82
67966;BMP280;54749;47.850;9.002;2023-10-09T06:54:40;96520.06;;;20.51
67966;BMP280;54749;47.850;9.002;2023-10-09T06:57:17;96520.16;;;21.19
67966;BMP280;54749;47.850;9.002;2023-10-09T07:00:05;96511.13;;;21.98
67966;BMP280;54749;47.850;9.002;2023-10-09T07:02:51;96520.97;;;22.82
67966;BMP280;54749;47.850;9.002;2023-10-09T07:05:20;96526.72;;;23.48
67966;BMP280;54749;47.850;9.002;2023-10-09T07:07:47;96526.56;;;23.35
67966;BMP280;54749;47.850;9.002;2023-10-09T07:10:22;96524.31;;;23.61
67966;BMP280;54749;47.850;9.002;2023-10-09T07:13:00;96525.78;;;24.32
67966;BMP280;54749;47.850;9.002;2023-10-09T07:15:31;96519.97;;;25.18
67966;BMP280;54749;47.850;9.002;2023-10-09T07:18:17;96513.44;;;25.95
67966;BMP280;54749;47.850;9.002;2023-10-09T07:20:50;96516.03;;;26.66
67966;BMP280;54749;47.850;9.002;2023-10-09T07:23:39;96498.78;;;27.53
67966;BMP280;54749;47.850;9.002;2023-10-09T07:26:15;96489.66;;;28.30
67966;BMP280;54749;47.850;9.002;2023-10-09T07:28:46;96514.31;;;29.05
67966;BMP280;54749;47.850;9.002;2023-10-09T07:31:19;96505.66;;;29.70
67966;BMP280;54749;47.850;9.002;2023-10-09T07:33:54;96499.84;;;30.21
67966;BMP280;54749;47.850;9.002;2023-10-09T07:36:24;96497.56;;;30.42
67966;BMP280;54749;47.850;9.002;2023-10-09T07:39:05;96495.03;;;30.75
67966;BMP280;54749;47.850;9.002;2023-10-09T07:41:43;96491.69;;;31.30
67966;BMP280;54749;47.850;9.002;2023-10-09T07:44:24;96500.50;;;31.47
67966;BMP280;54749;47.850;9.002;2023-10-09T07:47:06;96510.78;;;31.87
67966;BMP280;54749;47.850;9.002;2023-10-09T07:49:50;96486.28;;;32.58
67966;BMP280;54749;47.850;9.002;2023-10-09T07:52:21;96483.31;;;32.98
67966;BMP280;54749;47.850;9.002;2023-10-09T07:54:49;96488.22;;;33.43
67966;BMP280;54749;47.850;9.002;2023-10-09T07:57:29;96488.78;;;32.81
67966;BMP280;54749;47.850;9.002;2023-10-09T08:00:06;96500.72;;;32.06
67966;BMP280;54749;47.850;9.002;2023-10-09T08:03:00;96512.97;;;30.60
67966;BMP280;54749;47.850;9.002;2023-10-09T08:05:28;96510.03;;;30.68
67966;BMP280;54749;47.850;9.002;2023-10-09T08:08:01;96510.44;;;31.05
67966;BMP280;54749;47.850;9.002;2023-10-09T08:11:07;96500.47;;;32.46
67966;BMP280;54749;47.850;9.002;2023-10-09T08:13:53;96490.78;;;33.96
67966;BMP280;54749;47.850;9.002;2023-10-09T08:16:23;96491.41;;;34.50
67966;BMP280;54749;47.850;9.002;2023-10-09T08:18:54;96494.63;;;35.48
67966;BMP280;54749;47.850;9.002;2023-10-09T08:21:25;96475.06;;;35.70
67966;BMP280;54749;47.850;9.002;2023-10-09T08:24:25;96492.94;;;35.28
67966;BMP280;54749;47.850;9.002;2023-10-09T08:27:09;96503.50;;;35.07
67966;BMP280;54749;47.850;9.002;2023-10-09T08:29:59;96508.03;;;34.81
67966;BMP280;54749;47.850;9.002;2023-10-09T08:32:45;96510.69;;;34.85
67966;BMP280;54749;47.850;9.002;2023-10-09T08:35:32;96519.19;;;34.92
67966;BMP280;54749;47.850;9.002;2023-10-09T08:38:02;96520.22;;;34.91
67966;BMP280;54749;47.850;9.002;2023-10-09T08:40:41;96519.78;;;34.06
67966;BMP280;54749;47.850;9.002;2023-10-09T08:43:17;96531.19;;;33.26
67966;BMP280;54749;47.850;9.002;2023-10-09T08:45:47;96531.00;;;32.68
67966;BMP280;54749;47.850;9.002;2023-10-09T08:48:14;96529.41;;;32.02
67966;BMP280;54749;47.850;9.002;2023-10-09T08:50:45;96525.19;;;31.78
67966;BMP280;54749;47.850;9.002;2023-10-09T08:53:13;96536.03;;;31.48
67966;BMP280;54749;47.850;9.002;2023-10-09T08:55:41;96544.75;;;31.31
67966;BMP280;54749;47.850;9.002;2023-10-09T08:58:09;96546.88;;;31.00
67966;BMP280;54749;47.850;9.002;2023-10-09T09:00:47;96548.41;;;31.08
67966;BMP280;54749;47.850;9.002;2023-10-09T09:03:16;96535.59;;;31.51
67966;BMP280;54749;47.850;9.002;2023-10-09T09:05:49;96534.31;;;31.98
67966;BMP280;54749;47.850;9.002;2023-10-09T09:08:24;96535.91;;;31.99
67966;BMP280;54749;47.850;9.002;2023-10-09T09:16:33;96547.44;;;31.42
67966;BMP280;54749;47.850;9.002;2023-10-09T09:19:04;96543.09;;;31.59
67966;BMP280;54749;47.850;9.002;2023-10-09T09:21:39;96535.25;;;31.59
67966;BMP280;54749;47.850;9.002;2023-10-09T09:24:13;96534.91;;;31.66
67966;BMP280;54749;47.850;9.002;2023-10-09T09:27:01;96534.06;;;31.10
67966;BMP280;54749;47.850;9.002;2023-10-09T09:29:46;96534.47;;;30.45
67966;BMP280;54749;47.850;9.002;2023-10-09T09:32:31;96551.81;;;29.70
67966;BMP280;54749;47.850;9.002;2023-10-09T09:35:12;96551.91;;;29.16
67966;BMP280;54749;47.850;9.002;2023-10-09T09:37:53;96557.84;;;28.68
67966;BMP280;54749;47.850;9.002;2023-10-09T09:40:22;96565.72;;;28.26
67966;BMP280;54749;47.850;9.002;2023-10-09T09:43:01;96579.09;;;27.55
67966;BMP280;54749;47.850;9.002;2023-10-09T09:45:34;96580.75;;;27.18
67966;BMP280;54749;47.850;9.002;2023-10-09T09:48:03;96577.88;;;26.81
67966;BMP280;54749;47.850;9.002;2023-10-09T09:50:43;96566.31;;;26.77
67966;BMP280;54749;47.850;9.002;2023-10-09T09:53:15;96589.69;;;26.19
67966;BMP280;54749;47.850;9.002;2023-10-09T09:55:53;96592.06;;;26.14
67966;BMP280;54749;47.850;9.002;2023-10-09T09:58:27;96575.94;;;26.25
67966;BMP280;54749;47.850;9.002;2023-10-09T10:01:04;96587.72;;;26.27
67966;BMP280;54749;47.850;9.002;2023-10-09T10:03:53;96582.94;;;26.31
67966;BMP280;54749;47.850;9.002;2023-10-09T10:06:24;96595.03;;;26.11
67966;BMP280;54749;47.850;9.002;2023-10-09T10:08:53;96586.75;;;26.35
67966;BMP280;54749;47.850;9.002;2023-10-09T10:11:41;96583.38;;;26.40
67966;BMP280;54749;47.850;9.002;2023-10-09T10:14:09;96594.22;;;26.63
67966;BMP280;54749;47.850;9.002;2023-10-09T10:17:04;96588.69;;;26.78
67966;BMP280;54749;47.850;9.002;2023-10-09T10:22:29;96586.66;;;26.68
67966;BMP280;54749;47.850;9.002;2023-10-09T10:24:57;96594.53;;;26.41
67966;BMP280;54749;47.850;9.002;2023-10-09T10:27:26;96590.72;;;26.31
67966;BMP280;54749;47.850;9.002;2023-10-09T10:35:19;96589.72;;;25.53
67966;BMP280;54749;47.850;9.002;2023-10-09T10:38:31;96586.59;;;25.64
67966;BMP280;54749;47.850;9.002;2023-10-09T10:41:10;96592.63;;;25.70
67966;BMP280;54749;47.850;9.002;2023-10-09T10:43:45;96579.16;;;26.27
67966;BMP280;54749;47.850;9.002;2023-10-09T10:46:23;96579.06;;;26.66
67966;BMP280;54749;47.850;9.002;2023-10-09T10:48:50;96581.06;;;26.64
67966;BMP280;54749;47.850;9.002;2023-10-09T10:51:26;96588.59;;;26.47
67966;BMP280;54749;47.850;9.002;2023-10-09T10:54:06;96595.41;;;26.48
67966;BMP280;54749;47.850;9.002;2023-10-09T10:56:52;96581.97;;;26.32
67966;BMP280;54749;47.850;9.002;2023-10-09T10:59:19;96593.63;;;26.15
67966;BMP280;54749;47.850;9.002;2023-10-09T11:01:51;96579.69;;;26.10
67966;BMP280;54749;47.850;9.002;2023-10-09T11:04:41;96575.09;;;26.12
67966;BMP280;54749;47.850;9.002;2023-10-09T11:07:11;96586.03;;;26.07
67966;BMP280;54749;47.850;9.002;2023-10-09T11:09:57;96588.09;;;26.18
67966;BMP280;54749;47.850;9.002;2023-10-09T11:12:46;96586.88;;;26.14
67966;BMP280;54749;47.850;9.002;2023-10-09T11:15:35;96583.03;;;26.04
67966;BMP280;54749;47.850;9.002;2023-10-09T11:18:14;96577.50;;;26.19
67966;BMP280;54749;47.850;9.002;2023-10-09T11:20:51;96569.72;;;26.13
67966;BMP280;54749;47.850;9.002;2023-10-09T11:23:31;96572.31;;;26.13
67966;BMP280;54749;47.850;9.002;2023-10-09T11:26:19;96569.38;;;26.22
67966;BMP280;54749;47.850;9.002;2023-10-09T11:29:14;96563.16;;;26.17
67966;BMP280;54749;47.850;9.002;2023-10-09T11:32:02;96572.72;;;26.10
67966;BMP280;54749;47.850;9.002;2023-10-09T11:34:33;96553.31;;;26.00
67966;BMP280;54749;47.850;9.002;2023-10-09T11:37:12;96552.88;;;25.90
67966;BMP280;54749;47.850;9.002;2023-10-09T11:39:39;96565.75;;;25.78
67966;BMP280;54749;47.850;9.002;2023-10-09T11:42:26;96566.75;;;25.44
67966;BMP280;54749;47.850;9.002;2023-10-09T11:45:06;96554.78;;;25.36
67966;BMP280;54749;47.850;9.002;2023-10-09T11:47:53;96558.50;;;25.28
67966;BMP280;54749;47.850;9.002;2023-10-09T11:50:43;96548.97;;;25.34
67966;BMP280;54749;47.850;9.002;2023-10-09T11:53:11;96555.59;;;25.43
67966;BMP280;54749;47.850;9.002;2023-10-09T11:55:51;96558.34;;;25.35
67966;BMP280;54749;47.850;9.002;2023-10-09T11:58:21;96556.16;;;25.32
67966;BMP280;54749;47.850;9.002;2023-10-09T12:00:55;96560.03;;;25.22
67966;BMP280;54749;47.850;9.002;2023-10-09T12:03:32;96547.16;;;25.08
67966;BMP280;54749;47.850;9.002;2023-10-09T12:06:02;96555.66;;;25.02
67966;BMP280;54749;47.850;9.002;2023-10-09T12:08:34;96542.59;;;24.83
67966;BMP280;54749;47.850;9.002;2023-10-09T12:11:04;96552.03;;;24.70
67966;BMP280;54749;47.850;9.002;2023-10-09T12:13:36;96546.47;;;24.53
67966;BMP280;54749;47.850;9.002;2023-10-09T12:16:05;96547.94;;;24.41
67966;BMP280;54749;47.850;9.002;2023-10-09T12:18:42;96540.22;;;24.27
67966;BMP280;54749;47.850;9.002;2023-10-09T12:21:09;96549.63;;;24.14
67966;BMP280;54749;47.850;9.002;2023-10-09T12:23:43;96542.16;;;24.05
67966;BMP280;54749;47.850;9.002;2023-10-09T12:26:14;96555.56;;;23.94
67966;BMP280;54749;47.850;9.002;2023-10-09T12:28:43;96540.31;;;23.85
67966;BMP280;54749;47.850;9.002;2023-10-09T12:31:14;96551.63;;;23.70
67966;BMP280;54749;47.850;9.002;2023-10-09T12:33:47;96544.81;;;23.62
67966;BMP280;54749;47.850;9.002;2023-10-09T12:36:14;96550.22;;;23.53
67966;BMP280;54749;47.850;9.002;2023-10-09T12:38:48;96548.63;;;23.38
67966;BMP280;54749;47.850;9.002;2023-10-09T12:41:25;96541.06;;;23.22
67966;BMP280;54749;47.850;9.002;2023-10-09T12:43:55;96532.47;;;23.08
67966;BMP280;54749;47.850;9.002;2023-10-09T12:46:26;96540.13;;;23.01
67966;BMP280;54749;47.850;9.002;2023-10-09T12:48:54;96539.41;;;22.93
67966;BMP280;54749;47.850;9.002;2023-10-09T12:51:22;96536.19;;;22.91
67966;BMP280;54749;47.850;9.002;2023-10-09T12:53:57;96540.09;;;22.87
67966;BMP280;54749;47.850;9.002;2023-10-09T12:56:25;96535.63;;;22.82
67966;BMP280;54749;47.850;9.002;2023-10-09T12:59:06;96530.81;;;22.79
67966;BMP280;54749;47.850;9.002;2023-10-09T13:01:34;96532.94;;;22.75
67966;BMP280;54749;47.850;9.002;2023-10-09T13:04:12;96531.72;;;22.71
67966;BMP280;54749;47.850;9.002;2023-10-09T13:06:45;96521.19;;;22.73
67966;BMP280;54749;47.850;9.002;2023-10-09T13:09:14;96527.81;;;22.75
67966;BMP280;54749;47.850;9.002;2023-10-09T13:11:43;96523.44;;;22.76
67966;BMP280;54749;47.850;9.002;2023-10-09T13:14:11;96522.81;;;22.74
67966;BMP280;54749;47.850;9.002;2023-10-09T13:16:44;96518.38;;;22.68
67966;BMP280;54749;47.850;9.002;2023-10-09T13:19:13;96522.97;;;22.58
67966;BMP280;54749;47.850;9.002;2023-10-09T13:21:40;96526.38;;;22.51
67966;BMP280;54749;47.850;9.002;2023-10-09T13:24:08;96513.72;;;22.42
67966;BMP280;54749;47.850;9.002;2023-10-09T13:26:43;96516.47;;;22.40
67966;BMP280;54749;47.850;9.002;2023-10-09T13:29:13;96515.50;;;22.41
67966;BMP280;54749;47.850;9.002;2023-10-09T13:31:44;96517.44;;;22.39
67966;BMP280;54749;47.850;9.002;2023-10-09T13:34:15;96515.38;;;22.35
67966;BMP280;54749;47.850;9.002;2023-10-09T13:36:43;96511.94;;;22.42
67966;BMP280;54749;47.850;9.002;2023-10-09T13:39:26;96502.91;;;22.46
67966;BMP280;54749;47.850;9.002;2023-10-09T13:41:58;96502.09;;;22.46
67966;BMP280;54749;47.850;9.002;2023-10-09T13:44:28;96494.44;;;22.38
67966;BMP280;54749;47.850;9.002;2023-10-09T13:46:56;96491.38;;;22.34
67966;BMP280;54749;47.850;9.002;2023-10-09T13:49:25;96479.03;;;22.30
67966;BMP280;54749;47.850;9.002;2023-10-09T13:52:00;96467.81;;;22.23
67966;BMP280;54749;47.850;9.002;2023-10-09T13:54:30;96471.59;;;22.13
67966;BMP280;54749;47.850;9.002;2023-10-09T13:57:03;96462.97;;;22.06
67966;BMP280;54749;47.850;9.002;2023-10-09T13:59:35;96462.81;;;22.08
67966;BMP280;54749;47.850;9.002;2023-10-09T14:02:03;96465.03;;;22.11
67966;BMP280;54749;47.850;9.002;2023-10-09T14:04:37;96468.50;;;22.17
67966;BMP280;54749;47.850;9.002;2023-10-09T14:07:05;96474.06;;;22.29
67966;BMP280;54749;47.850;9.002;2023-10-09T14:09:35;96468.03;;;22.36
67966;BMP280;54749;47.850;9.002;2023-10-09T14:12:06;96477.31;;;22.45
67966;BMP280;54749;47.850;9.002;2023-10-09T14:14:41;96483.06;;;22.54
67966;BMP280;54749;47.850;9.002;2023-10-09T14:17:14;96477.28;;;22.66
67966;BMP280;54749;47.850;9.002;2023-10-09T14:19:50;96479.34;;;22.71
67966;BMP280;54749;47.850;9.002;2023-10-09T14:22:23;96480.59;;;22.75
67966;BMP280;54749;47.850;9.002;2023-10-09T14:24:54;96460.94;;;22.74
67966;BMP280;54749;47.850;9.002;2023-10-09T14:27:27;96477.13;;;22.68
67966;BMP280;54749;47.850;9.002;2023-10-09T14:29:57;96488.81;;;22.56
67966;BMP280;54749;47.850;9.002;2023-10-09T14:32:27;96483.06;;;22.54
67966;BMP280;54749;47.850;9.002;2023-10-09T14:35:02;96477.22;;;22.52
67966;BMP280;54749;47.850;9.002;2023-10-09T14:37:29;96467.50;;;22.62
67966;BMP280;54749;47.850;9.002;2023-10-09T14:39:57;96466.09;;;22.74
67966;BMP280;54749;47.850;9.002;2023-10-09T14:42:25;96465.56;;;22.78
67966;BMP280;54749;47.850;9.002;2023-10-09T14:44:55;96469.06;;;22.85
67966;BMP280;54749;47.850;9.002;2023-10-09T14:47:22;96456.63;;;22.88
67966;BMP280;54749;47.850;9.002;2023-10-09T14:49:50;96454.31;;;22.93
67966;BMP280;54749;47.850;9.002;2023-10-09T14:52:20;96453.50;;;23.07
67966;BMP280;54749;47.850;9.002;2023-10-09T14:54:47;96464.72;;;23.14
67966;BMP280;54749;47.850;9.002;2023-10-09T14:57:17;96450.59;;;23.24
67966;BMP280;54749;47.850;9.002;2023-10-09T14:59:45;96447.47;;;23.28
67966;BMP280;54749;47.850;9.002;2023-10-09T15:02:13;96453.50;;;23.35
67966;BMP280;54749;47.850;9.002;2023-10-09T15:04:40;96445.66;;;23.43
67966;BMP280;54749;47.850;9.002;2023-10-09T15:07:07;96449.25;;;23.42
67966;BMP280;54749;47.850;9.002;2023-10-09T15:09:35;96452.44;;;23.44
67966;BMP280;54749;47.850;9.002;2023-10-09T15:12:07;96449.25;;;23.42
67966;BMP280;54749;47.850;9.002;2023-10-09T15:14:36;96448.34;;;23.35